• Join FlightAware (Why Join?)
  • Login
  • US Flag 
03:02PM EDT


 

Airport Tracker/Info


-or-


 

Live Flight TrackerFlight Track Log ✈ SWA407 ✈ 18-Apr-2013 ✈ KATL - KSFO

Flight Track Log - Related Links

Times and Time Zones

All times are in EDT time to prevent confusion due to time zone crossing. See the SWA407 flight status page for this flight to view local times or setup timezone preferences in your user account.

Time Position Orientation Groundspeed Altitude Reporting Facility
EDT Latitude Longitude Course Direction KTS MPH feet Rate Location/Type
06:23PM 33.6500 -84.3833 73° East 173 199 2,300  Level Atlanta TRACON
06:24PM 33.6667 -84.3167 73° East 241 277 3,900 2,280 Climbing Atlanta TRACON
06:25PM 33.7333 -84.2833 23° Northeast 295 339 6,900 3,000 Climbing Atlanta TRACON
06:26PM 33.8000 -84.3167 337° Northwest 301 346 9,900 2,160 Climbing Atlanta TRACON
06:27PM 33.8100 -84.5064 274° West 344 396 13,000 1,920 Climbing Atlanta Center
06:28PM 33.7886 -84.6211 257° West 360 414 15,400 2,340 Climbing Atlanta Center
06:29PM 33.7236 -84.7206 232° Southwest 355 409 17,700 2,340 Climbing Atlanta Center
06:30PM 33.6561 -84.8250 232° Southwest 380 437 20,100 2,400 Climbing Atlanta Center
06:31PM 33.5967 -84.9542 241° Southwest 405 466 22,600 2,100 Climbing Atlanta Center
06:32PM 33.5417 -85.0706 240° Southwest 405 466 24,400 1,740 Climbing Atlanta Center
06:33PM 33.4656 -85.1719 228° Southwest 412 474 26,100 1,500 Climbing Atlanta Center
06:34PM 33.3811 -85.2753 226° Southwest 427 491 27,400 1,200 Climbing Atlanta Center
06:35PM 33.2964 -85.3758 225° Southwest 427 491 28,600 1,200 Climbing Atlanta Center
06:36PM 33.2181 -85.4742 226° Southwest 436 502 29,900 1,380 Climbing Atlanta Center
06:37PM 33.1314 -85.5719 223° Southwest 436 502 31,400 1,620 Climbing Atlanta Center
06:38PM 33.0467 -85.6744 225° Southwest 436 502 33,200 1,500 Climbing Atlanta Center
06:39PM 32.9658 -85.7744 226° Southwest 431 496 34,500 1,140 Climbing Atlanta Center
06:40PM 32.8831 -85.8717 225° Southwest 426 490 35,500 720 Climbing Atlanta Center
06:41PM 32.7958 -85.9736 225° Southwest 426 490 36,000 240 Climbing Atlanta Center
06:42PM 32.7128 -86.0756 226° Southwest 426 490 36,000  Level Atlanta Center
06:43PM 32.6278 -86.1747 225° Southwest 426 490 36,000  Level Atlanta Center
06:44PM 32.5444 -86.2761 226° Southwest 426 490 36,000  Level Atlanta Center
06:45PM 32.4464 -86.3894 224° Southwest 434 499 36,000  Level Atlanta Center
06:46PM 32.3778 -86.4836 229° Southwest 434 499 36,000  Level Atlanta Center
06:47PM 32.2922 -86.5819 224° Southwest 429 494 36,000  Level Atlanta Center
06:48PM 32.2089 -86.6800 225° Southwest 424 488 36,000  Level Atlanta Center
06:49PM 32.1086 -86.7850 222° Southwest 429 494 36,000  Level Atlanta Center
06:50PM 32.0269 -86.8831 226° Southwest 429 494 36,000  Level Atlanta Center
06:51PM 31.9411 -86.9783 223° Southwest 429 494 36,000  Level Atlanta Center
06:52PM 31.8553 -87.0756 224° Southwest 429 494 36,000  Level Atlanta Center
06:53PM 31.7736 -87.1756 226° Southwest 429 494 36,000  Level Atlanta Center
06:54PM 31.6897 -87.2703 224° Southwest 424 488 36,000  Level Atlanta Center
06:55PM 31.6208 -87.3556 227° Southwest 418 481 36,000  Level Atlanta Center
06:57PM 31.4503 -87.5417 223° Southwest 414 476 36,000  Level Houston Center
06:58PM 31.3669 -87.6358 224° Southwest 415 478 36,000  Level Houston Center
06:59PM 31.2681 -87.7489 224° Southwest 414 476 36,000  Level Houston Center
07:01PM 31.1981 -87.8297 225° Southwest 415 478 36,000  Level Houston Center
07:02PM 31.1961 -87.9750 269° West 399 459 36,000  Level Houston Center
07:03PM 31.2300 -88.0872 289° West 394 453 36,000  Level Houston Center
07:04PM 31.2644 -88.2097 288° West 403 464 36,000  Level Houston Center
07:05PM 31.3036 -88.3542 288° West 394 453 36,000  Level Houston Center
07:06PM 31.3375 -88.4744 288° West 392 451 36,000  Level Houston Center
07:07PM 31.3731 -88.5978 289° West 400 460 36,000  Level Houston Center
07:08PM 31.4078 -88.7186 289° West 399 459 36,000  Level Houston Center
07:09PM 31.4411 -88.8386 288° West 392 451 36,000  Level Houston Center
07:10PM 31.4817 -88.9786 289° West 383 441 36,000  Level Houston Center
07:11PM 31.5158 -89.0969 289° West 384 442 36,000  Level Houston Center
07:12PM 31.5492 -89.2147 288° West 383 441 36,000  Level Houston Center
07:13PM 31.5828 -89.3328 289° West 383 441 36,000  Level Houston Center
07:14PM 31.6142 -89.4500 287° West 379 436 36,000  Level Houston Center
07:15PM 31.6481 -89.5792 287° West 382 440 36,000  Level Houston Center
07:16PM 31.6700 -89.6592 288° West 378 435 36,000  Level Memphis Center
07:17PM 31.7039 -89.7786 288° West 385 443 36,000  Level Memphis Center
07:18PM 31.7358 -89.8981 287° West 385 443 36,000  Level Memphis Center
07:19PM 31.7675 -90.0178 287° West 385 443 36,000  Level Memphis Center
07:20PM 31.7992 -90.1350 288° West 380 437 36,000  Level Memphis Center
07:20PM 31.8081 -90.1739 285° West 384 442 36,000  Level Houston Center
07:21PM 31.8408 -90.2883 289° West 375 432 36,000  Level Houston Center
07:22PM 31.8719 -90.4031 288° West 371 427 36,000  Level Houston Center
07:23PM 31.8911 -90.4822 286° West 380 437 36,000  Level Memphis Center
07:24PM 31.9222 -90.5972 288° West 380 437 36,000  Level Memphis Center
07:24PM 31.9397 -90.6539 290° West 367 422 36,000  Level Houston Center
07:25PM 31.9717 -90.7692 288° West 369 425 36,000  Level Houston Center
07:26PM 32.0025 -90.8839 288° West 369 425 36,000  Level Houston Center
07:27PM 32.0336 -90.9989 288° West 370 426 36,000  Level Houston Center
07:28PM 32.0614 -91.1153 286° West 372 428 36,000  Level Houston Center
07:29PM 32.1011 -91.2567 288° West 378 435 36,000  Level Houston Center
07:30PM 32.1294 -91.3719 286° West 372 428 36,000  Level Houston Center
07:31PM 32.1581 -91.4883 286° West 371 427 36,000  Level Houston Center
07:32PM 32.1878 -91.6031 287° West 369 425 36,000  Level Houston Center
07:33PM 32.2167 -91.7183 287° West 368 423 36,000  Level Houston Center
07:34PM 32.2528 -91.8575 287° West 370 426 36,000  Level Houston Center
07:35PM 32.2711 -91.9250 288° West 372 428 36,000  Level Fort Worth Center
07:36PM 32.2814 -91.9717 285° West 367 422 36,000  Level Houston Center
07:37PM 32.3103 -92.0861 287° West 366 421 36,000  Level Houston Center
07:38PM 32.3403 -92.2031 287° West 369 425 36,000  Level Houston Center
07:39PM 32.3686 -92.3192 286° West 370 426 36,000  Level Houston Center
07:39PM 32.3867 -92.3878 287° West 372 428 36,000  Level Fort Worth Center
07:40PM 32.4203 -92.5014 289° West 367 422 36,000  Level Fort Worth Center
07:41PM 32.4478 -92.6206 285° West 367 422 36,000  Level Fort Worth Center
07:42PM 32.4775 -92.7419 286° West 374 430 36,000  Level Fort Worth Center
07:43PM 32.5047 -92.8614 285° West 374 430 36,000 600 Level Fort Worth Center
07:44PM 32.5317 -92.9758 286° West 374 430 37,300 960 Climbing Fort Worth Center
07:45PM 32.5614 -93.1025 286° West 374 430 38,000 300 Climbing Fort Worth Center
07:46PM 32.5903 -93.2194 286° West 374 430 38,000  Level Fort Worth Center
07:47PM 32.6192 -93.3389 286° West 374 430 38,000  Level Fort Worth Center
07:48PM 32.6458 -93.4561 285° West 374 430 38,000  Level Fort Worth Center
07:49PM 32.6725 -93.5683 286° West 374 430 38,000  Level Fort Worth Center
07:50PM 32.7008 -93.6833 286° West 374 430 38,000  Level Fort Worth Center
07:51PM 32.7272 -93.7983 285° West 374 430 38,000  Level Fort Worth Center
07:52PM 32.7533 -93.9133 285° West 369 425 38,000  Level Fort Worth Center
07:53PM 32.7817 -94.0283 286° West 369 425 38,000  Level Fort Worth Center
07:54PM 32.8056 -94.1411 284° West 369 425 38,000  Level Fort Worth Center
07:55PM 32.8361 -94.2758 285° West 359 413 38,000  Level Fort Worth Center
07:56PM 32.8617 -94.3864 285° West 359 413 38,000  Level Fort Worth Center
07:57PM 32.8875 -94.5017 285° West 353 406 38,000  Level Fort Worth Center
07:58PM 32.9150 -94.6147 286° West 353 406 38,000  Level Fort Worth Center
07:59PM 32.9425 -94.7275 286° West 353 406 38,000  Level Fort Worth Center
08:00PM 32.9678 -94.8433 285° West 358 412 38,000  Level Fort Worth Center
08:01PM 32.9911 -94.9564 284° West 358 412 38,000  Level Fort Worth Center
08:02PM 33.0161 -95.0722 284° West 358 412 38,000  Level Fort Worth Center
08:03PM 33.0386 -95.1633 286° West 358 412 38,000  Level Fort Worth Center
08:04PM 33.0661 -95.2892 285° West 358 412 38,000  Level Fort Worth Center
08:05PM 33.0908 -95.4025 285° West 358 412 38,000  Level Fort Worth Center
08:06PM 33.1175 -95.5161 286° West 358 412 38,000  Level Fort Worth Center
08:07PM 33.1486 -95.6369 287° West 358 412 38,000  Level Fort Worth Center
08:08PM 33.1731 -95.7531 284° West 353 406 38,000  Level Fort Worth Center
08:09PM 33.1997 -95.8644 286° West 353 406 38,000  Level Fort Worth Center
08:10PM 33.2217 -95.9756 283° West 353 406 38,000  Level Fort Worth Center
08:11PM 33.2481 -96.0844 286° West 353 406 38,000  Level Fort Worth Center
08:12PM 33.2700 -96.1986 283° West 353 406 38,000  Level Fort Worth Center
08:13PM 33.2942 -96.3075 285° West 353 406 38,000  Level Fort Worth Center
08:14PM 33.3158 -96.4092 284° West 353 406 38,000  Level Fort Worth Center
08:15PM 33.3375 -96.5183 283° West 348 400 38,000  Level Fort Worth Center
08:16PM 33.3611 -96.6275 285° West 348 400 38,000  Level Fort Worth Center
08:17PM 33.3869 -96.7417 285° West 353 406 38,000  Level Fort Worth Center
08:18PM 33.4083 -96.8561 283° West 359 413 38,000  Level Fort Worth Center
08:19PM 33.4317 -96.9703 284° West 353 406 38,000  Level Fort Worth Center
08:20PM 33.4550 -97.0897 283° West 358 412 38,000  Level Fort Worth Center
08:21PM 33.4803 -97.2067 285° West 358 412 38,000  Level Fort Worth Center
08:22PM 33.5033 -97.3214 284° West 358 412 38,000  Level Fort Worth Center
08:23PM 33.5283 -97.4408 284° West 358 412 38,000  Level Fort Worth Center
08:24PM 33.5533 -97.5681 283° West 363 418 38,000  Level Fort Worth Center
08:25PM 33.5761 -97.6903 283° West 363 418 38,000  Level Fort Worth Center
08:26PM 33.6008 -97.8100 284° West 363 418 38,000  Level Fort Worth Center
08:27PM 33.6233 -97.9297 283° West 368 423 38,000  Level Fort Worth Center
08:28PM 33.6458 -98.0447 283° West 368 423 38,000  Level Fort Worth Center
08:29PM 33.6681 -98.1647 283° West 368 423 38,000  Level Fort Worth Center
08:30PM 33.6925 -98.2822 284° West 369 425 38,000  Level Fort Worth Center
08:31PM 33.7144 -98.3997 283° West 369 425 38,000  Level Fort Worth Center
08:32PM 33.7386 -98.5175 284° West 369 425 38,000  Level Fort Worth Center
08:33PM 33.7583 -98.6353 281° West 369 425 38,000  Level Fort Worth Center
08:34PM 33.7822 -98.7506 284° West 364 419 38,000  Level Fort Worth Center
08:35PM 33.8039 -98.8558 284° West 364 419 38,000  Level Fort Worth Center
08:36PM 33.8253 -98.9861 281° West 364 419 38,000  Level Fort Worth Center
08:37PM 33.8467 -99.1017 283° West 359 413 38,000  Level Fort Worth Center
08:38PM 33.8681 -99.2219 282° West 359 413 38,000  Level Fort Worth Center
08:39PM 33.8914 -99.3400 283° West 359 413 38,000  Level Fort Worth Center
08:40PM 33.9125 -99.4583 282° West 359 413 38,000  Level Fort Worth Center
08:41PM 33.9356 -99.5789 283° West 359 413 38,000  Level Fort Worth Center
08:42PM 33.9561 -99.6997 282° West 359 413 38,000  Level Fort Worth Center
08:43PM 33.9789 -99.8206 283° West 364 419 38,000  Level Fort Worth Center
08:44PM 33.9997 -99.9414 282° West 375 432 38,000  Level Fort Worth Center
08:45PM 34.0222 -100.0622 283° West 370 426 38,000  Level Fort Worth Center
08:46PM 34.0444 -100.1883 282° West 376 433 38,000  Level Fort Worth Center
08:47PM 34.0644 -100.3167 281° West 376 433 38,000  Level Fort Worth Center
08:48PM 34.0867 -100.4328 283° West 376 433 38,000  Level Fort Worth Center
08:49PM 34.1086 -100.5589 282° West 376 433 38,000  Level Fort Worth Center
08:50PM 34.1283 -100.6853 281° West 376 433 38,000  Level Fort Worth Center
08:51PM 34.1503 -100.8064 282° West 375 432 38,000  Level Fort Worth Center
08:52PM 34.1719 -100.9303 282° West 375 432 38,000  Level Fort Worth Center
08:53PM 34.1936 -101.0467 283° West 386 444 38,000  Level Fort Worth Center
08:54PM 34.2147 -101.1806 281° West 391 450 38,000  Level Fort Worth Center
08:55PM 34.2339 -101.2969 281° West 383 441 38,000  Level Fort Worth Center
08:56PM 34.2550 -101.4286 281° West 383 441 38,000  Level Fort Worth Center
08:57PM 34.2719 -101.5425 280° West 371 427 38,000  Level Fort Worth Center
08:58PM 34.2947 -101.6769 282° West 377 434 38,000  Level Fort Worth Center
08:59PM 34.3117 -101.7858 281° West 372 428 38,000  Level Fort Worth Center
09:02PM 34.3583 -102.0708 281° West 373 429 38,000  Level Albuquerque Center
09:03PM 34.3786 -102.1969 281° West 376 433 38,000  Level Albuquerque Center
09:04PM 34.4025 -102.3475 281° West 380 437 38,000  Level Albuquerque Center
09:05PM 34.4222 -102.4733 281° West 380 437 38,000  Level Albuquerque Center
09:06PM 34.4422 -102.5972 281° West 378 435 38,000  Level Albuquerque Center
09:07PM 34.4614 -102.7208 281° West 374 430 38,000  Level Albuquerque Center
09:08PM 34.4800 -102.8467 280° West 377 434 38,000  Level Albuquerque Center
09:09PM 34.4994 -102.9769 280° West 378 435 38,000  Level Albuquerque Center
09:10PM 34.5192 -103.1053 281° West 382 440 38,000  Level Albuquerque Center
09:11PM 34.5383 -103.2319 280° West 380 437 38,000  Level Albuquerque Center
09:12PM 34.5603 -103.3806 280° West 379 436 38,000  Level Albuquerque Center
09:13PM 34.5792 -103.5092 280° West 382 440 38,000  Level Albuquerque Center
09:14PM 34.5986 -103.6375 280° West 383 441 38,000  Level Albuquerque Center
09:15PM 34.6167 -103.7661 280° West 382 440 38,000  Level Albuquerque Center
09:16PM 34.6353 -103.8944 280° West 383 441 38,000  Level Albuquerque Center
09:17PM 34.6542 -104.0256 280° West 387 445 38,000  Level Albuquerque Center
09:18PM 34.6725 -104.1564 280° West 389 448 38,000  Level Albuquerque Center
09:19PM 34.6906 -104.2872 280° West 388 447 38,000  Level Albuquerque Center
09:20PM 34.7086 -104.4183 280° West 389 448 38,000  Level Albuquerque Center
09:21PM 34.7269 -104.5514 280° West 392 451 38,000  Level Albuquerque Center
09:22PM 34.7464 -104.6833 280° West 392 451 38,000  Level Albuquerque Center
09:23PM 34.7631 -104.8153 279° West 391 450 38,000  Level Albuquerque Center
09:24PM 34.7806 -104.9450 279° West 387 445 38,000  Level Albuquerque Center
09:25PM 34.8025 -105.0989 280° West 389 448 38,000  Level Albuquerque Center
09:26PM 34.8206 -105.2303 280° West 389 448 38,000  Level Albuquerque Center
09:27PM 34.8378 -105.3619 279° West 391 450 38,000  Level Albuquerque Center
09:28PM 34.8542 -105.4944 279° West 391 450 38,000  Level Albuquerque Center
09:29PM 34.8742 -105.6272 280° West 394 453 38,000  Level Albuquerque Center
09:31PM 34.8892 -105.7592 278° West 391 450 38,000  Level Albuquerque Center
09:32PM 34.9058 -105.8947 279° West 390 449 38,000  Level Albuquerque Center
09:33PM 34.9217 -106.0239 279° West 387 445 38,000  Level Albuquerque Center
09:34PM 34.9372 -106.1558 278° West 391 450 38,000  Level Albuquerque Center
09:35PM 34.9536 -106.2872 279° West 393 452 38,000  Level Albuquerque Center
09:36PM 34.9694 -106.4194 278° West 395 455 38,000  Level Albuquerque Center
09:37PM 34.9869 -106.5681 278° West 402 463 38,000  Level Albuquerque Center
09:38PM 35.0011 -106.6967 278° West 404 465 38,000  Level Albuquerque Center
09:39PM 35.0192 -106.8464 278° West 401 461 38,000  Level Albuquerque Center
09:40PM 35.0372 -106.9714 280° West 395 455 38,000  Level Albuquerque Center
09:41PM 35.0553 -107.1200 278° West 395 455 38,000  Level Albuquerque Center
09:42PM 35.0656 -107.2328 276° West 396 456 38,000  Level Albuquerque Center
09:43PM 35.0833 -107.3911 278° West 395 455 38,000  Level Albuquerque Center
09:44PM 35.0981 -107.5206 278° West 388 447 38,000  Level Albuquerque Center
09:45PM 35.1125 -107.6467 278° West 389 448 38,000  Level Albuquerque Center
09:46PM 35.1292 -107.7908 278° West 385 443 38,000  Level Albuquerque Center
09:47PM 35.1428 -107.9156 278° West 387 445 38,000  Level Albuquerque Center
09:48PM 35.1567 -108.0419 278° West 390 449 38,000  Level Albuquerque Center
09:49PM 35.1719 -108.1883 277° West 389 448 38,000  Level Albuquerque Center
09:50PM 35.1856 -108.3142 278° West 389 448 38,000  Level Albuquerque Center
09:51PM 35.2022 -108.4600 278° West 388 447 38,000  Level Albuquerque Center
09:52PM 35.2150 -108.5858 277° West 388 447 38,000  Level Albuquerque Center
09:53PM 35.2283 -108.7142 277° West 393 452 38,000  Level Albuquerque Center
09:54PM 35.2436 -108.8636 277° West 394 453 38,000  Level Albuquerque Center
09:55PM 35.2572 -108.9928 277° West 397 457 38,000  Level Albuquerque Center
09:56PM 35.2719 -109.1444 277° West 400 460 38,000  Level Albuquerque Center
09:57PM 35.2850 -109.2739 277° West 399 459 38,000  Level Albuquerque Center
09:58PM 35.2983 -109.4044 277° West 401 461 38,000  Level Albuquerque Center
09:59PM 35.3114 -109.5558 276° West 400 460 38,000  Level Albuquerque Center
10:00PM 35.3242 -109.6869 277° West 402 463 38,000  Level Albuquerque Center
10:01PM 35.3408 -109.8433 277° West 416 479 38,000  Level Albuquerque Center
10:02PM 35.3517 -109.9764 276° West 412 474 38,000  Level Albuquerque Center
10:03PM 35.3631 -110.1078 276° West 408 470 38,000  Level Albuquerque Center
10:04PM 35.3772 -110.2628 276° West 408 470 38,000  Level Albuquerque Center
10:05PM 35.3872 -110.3975 275° West 417 480 38,000  Level Albuquerque Center
10:06PM 35.3986 -110.5544 275° West 415 478 38,000  Level Albuquerque Center
10:07PM 35.4108 -110.6903 276° West 418 481 38,000  Level Albuquerque Center
10:08PM 35.4231 -110.8261 276° West 418 481 38,000  Level Albuquerque Center
10:09PM 35.4369 -110.9839 276° West 417 480 38,000  Level Albuquerque Center
10:10PM 35.4478 -111.1178 276° West 415 478 38,000  Level Albuquerque Center
10:12PM 35.4606 -111.2761 276° West 417 480 38,000  Level Albuquerque Center
10:13PM 35.4722 -111.4086 276° West 412 474 38,000  Level Albuquerque Center
10:14PM 35.4836 -111.5600 275° West 423 487 38,000  Level Albuquerque Center
10:15PM 35.4947 -111.6981 276° West 415 478 38,000  Level Albuquerque Center
10:16PM 35.5056 -111.8375 275° West 413 475 38,000  Level Albuquerque Center
10:17PM 35.5161 -111.9775 275° West 414 476 38,000  Level Albuquerque Center
10:18PM 35.5269 -112.1178 275° West 416 479 38,000  Level Albuquerque Center
10:19PM 35.5369 -112.2594 275° West 417 480 38,000  Level Albuquerque Center
10:20PM 35.5481 -112.3992 276° West 414 476 38,000  Level Los Angeles Center
10:21PM 35.5581 -112.5372 275° West 411 473 38,000  Level Los Angeles Center
10:22PM 35.5683 -112.6856 275° West 407 468 38,000  Level Los Angeles Center
10:23PM 35.5778 -112.8214 275° West 402 463 38,000  Level Los Angeles Center
10:24PM 35.5883 -112.9772 275° West 409 471 38,000  Level Los Angeles Center
10:25PM 35.6128 -113.1122 283° West 405 466 38,000  Level Los Angeles Center
10:26PM 35.6433 -113.2472 286° West 410 472 38,000  Level Los Angeles Center
10:27PM 35.6719 -113.3742 286° West 411 473 38,000  Level Los Angeles Center
10:28PM 35.7078 -113.5347 285° West 410 472 38,000  Level Los Angeles Center
10:29PM 35.7339 -113.6514 285° West 406 467 38,000  Level Los Angeles Center
10:30PM 35.7694 -113.8125 285° West 405 466 38,000  Level Los Angeles Center
10:31PM 35.7983 -113.9447 285° West 401 461 38,000  Level Los Angeles Center
10:32PM 35.8283 -114.0797 285° West 405 466 38,000  Level Los Angeles Center
10:33PM 35.8575 -114.2158 285° West 409 471 38,000  Level Los Angeles Center
10:34PM 35.8869 -114.3539 285° West 413 475 38,000  Level Los Angeles Center
10:35PM 35.9161 -114.4900 285° West 412 474 38,000  Level Los Angeles Center
10:36PM 35.9461 -114.6281 285° West 416 479 38,000  Level Los Angeles Center
10:37PM 35.9808 -114.7942 285° West 416 479 38,000  Level Los Angeles Center
10:38PM 36.0228 -114.9269 291° West 415 478 38,000 -360 Level Los Angeles Center
10:39PM 36.0789 -115.0517 299° West 416 479 37,300 -780 Descending Los Angeles Center
10:40PM 36.1331 -115.1753 299° West 411 473 36,400 -660 Descending Los Angeles Center
10:41PM 36.1856 -115.2953 298° West 398 458 36,000 -240 Descending Los Angeles Center
10:42PM 36.2347 -115.4086 298° West 377 434 36,000  Level Los Angeles Center
10:43PM 36.2858 -115.5250 299° West 380 437 36,000  Level Los Angeles Center
10:44PM 36.3397 -115.6558 297° West 390 449 36,000  Level Los Angeles Center
10:45PM 36.3903 -115.7722 298° West 385 443 36,000  Level Los Angeles Center
10:46PM 36.4486 -115.9083 298° West 386 444 36,000  Level Los Angeles Center
10:47PM 36.4989 -116.0281 298° West 390 449 36,000  Level Los Angeles Center
10:48PM 36.5508 -116.1467 299° West 390 449 36,000  Level Los Angeles Center
10:49PM 36.6006 -116.2678 297° West 392 451 36,000  Level Los Angeles Center
10:50PM 36.6517 -116.3883 298° West 393 452 36,000  Level Los Angeles Center
10:52PM 36.7031 -116.5097 298° West 395 455 36,000  Level Los Angeles Center
10:53PM 36.7539 -116.6328 297° West 397 457 36,000  Level Los Angeles Center
10:54PM 36.8081 -116.7536 299° West 398 458 36,000  Level Los Angeles Center
10:55PM 36.9167 -116.8425 327° Northwest 391 450 36,000  Level Los Angeles Center
10:56PM 37.0069 -116.9186 326° Northwest 389 448 36,000  Level Los Angeles Center
10:57PM 37.0967 -116.9947 326° Northwest 389 448 36,000  Level Los Angeles Center
10:58PM 37.1878 -117.0717 326° Northwest 393 452 36,000  Level Los Angeles Center
10:59PM 37.2533 -117.1806 307° West 415 478 36,000  Level Los Angeles Center
11:00PM 37.2639 -117.2936 277° West 415 478 36,000  Level Los Angeles Center
11:01PM 37.2875 -117.4944 278° West 412 474 36,000  Level Oakland Center
11:02PM 37.3044 -117.6369 279° West 410 472 36,000  Level Oakland Center
11:03PM 37.3197 -117.7789 278° West 410 472 36,000  Level Oakland Center
11:04PM 37.3353 -117.9194 278° West 407 468 36,000  Level Oakland Center
11:05PM 37.3506 -118.0606 278° West 406 467 36,000  Level Oakland Center
11:06PM 37.3658 -118.2028 278° West 407 468 36,000  Level Oakland Center
11:07PM 37.3811 -118.3447 278° West 408 470 36,000  Level Oakland Center
11:08PM 37.3958 -118.4892 277° West 414 476 36,000  Level Oakland Center
11:09PM 37.4136 -118.6625 277° West 416 479 36,000  Level Oakland Center
11:10PM 37.4283 -118.8061 277° West 422 486 36,000  Level Oakland Center
11:11PM 37.4408 -118.9436 277° West 416 479 36,000  Level Oakland Center
11:12PM 37.4553 -119.0911 277° West 423 487 36,000 -480 Level Oakland Center
11:13PM 37.4733 -119.2467 278° West 455 524 35,100 -900 Descending Oakland Center
11:14PM 37.4878 -119.3939 277° West 433 498 34,200 -600 Descending Oakland Center
11:15PM 37.5008 -119.5472 276° West 429 494 34,000 -120 Descending Oakland Center
11:16PM 37.5133 -119.6947 276° West 426 490 34,000  Level Oakland Center
11:17PM 37.5283 -119.8392 278° West 404 465 34,000 -120 Level Oakland Center
11:18PM 37.5414 -119.9906 276° West 433 498 33,800 -720 Descending Oakland Center
11:19PM 37.5583 -120.1639 277° West 422 486 32,600 -1,080 Descending Oakland Center
11:20PM 37.5725 -120.3097 277° West 419 482 31,700 -1,320 Descending Oakland Center
11:21PM 37.5842 -120.4597 276° West 426 490 30,000 -1,980 Descending Oakland Center
11:22PM 37.5978 -120.5956 277° West 398 458 27,700 -2,460 Descending Oakland Center
11:23PM 37.6086 -120.7242 276° West 372 428 25,100 -2,280 Descending Oakland Center
11:24PM 37.6094 -120.8519 271° West 366 421 23,100 -1,980 Descending Oakland Center
11:25PM 37.5994 -120.9822 265° West 370 426 21,100 -1,980 Descending Oakland Center
11:26PM 37.5906 -121.1075 265° West 361 415 19,100 -1,860 Descending Oakland Center
11:27PM 37.5817 -121.2217 264° West 353 406 17,400 -1,980 Descending Oakland Center
11:28PM 37.5728 -121.3428 265° West 348 400 15,100 -2,220 Descending Oakland Center
11:29PM 37.5608 -121.4900 264° West 352 405 13,000 -1,920 Descending Oakland Center
11:30PM 37.5397 -121.6042 257° West 336 387 11,200 -1,620 Descending Oakland Center
11:31PM 37.5169 -121.7128 255° West 324 373 9,800 -1,500 Descending Oakland Center
11:33PM 37.5000 -121.8167 258° West 292 336 8,100 -1,380 Descending Northern Cal TRACON
11:34PM 37.4833 -121.9333 260° West 286 329 6,900 -1,200 Descending Northern Cal TRACON
11:35PM 37.5167 -122.0167 297° West 274 315 5,700 -1,560 Descending Northern Cal TRACON
11:36PM 37.5333 -122.1000 284° West 271 312 3,800 -1,500 Descending Northern Cal TRACON
11:37PM 37.5581 -122.1753 293° West 267 307 2,900 -780 Descending Oakland Center
11:38PM 37.5783 -122.2456 290° West 239 275 2,300 -900 Descending Oakland Center
11:39PM 37.5881 -122.3003 283° West 191 220 1,100 -1,020 Descending Oakland Center
11:40PM 37.6044 -122.3403 297° West 155 178 300 -840 Descending Oakland Center
11:42PM 37.6167 -122.3667 322° Northwest  Level FlightAware Approximate